Time;durP1;ratioP1;P1;durP2;ratioP2;P2;SDS_P1;SDS_P2;PMS_P1;PMS_P2;Temp;Humidity;BMP_temperature;BMP_pressure;BME280_temperature;BME280_humidity;BME280_pressure;Samples;Min_cycle;Max_cycle;Signal;HPM_P1;HPM_P2
2022/04/13 00:02:06;;;;;;;9.23;5.50;;;14.50;91.80;;;;;;4948997;29;20031;-45
2022/04/13 00:04:32;;;;;;;10.60;5.97;;;14.40;92.30;;;;;;4947227;28;20047;-48
2022/04/13 00:06:57;;;;;;;8.05;5.50;;;14.40;92.30;;;;;;4950591;29;20031;-45
2022/04/13 00:09:24;;;;;;;8.98;5.80;;;14.30;92.30;;;;;;4946212;29;20050;-46
2022/04/13 00:11:52;;;;;;;5.90;4.40;;;14.20;92.60;;;;;;4946865;29;20039;-47
2022/04/13 00:14:22;;;;;;;7.35;4.60;;;14.20;93.10;;;;;;4950784;29;20201;-45
2022/04/13 00:16:48;;;;;;;8.27;4.78;;;14.10;93.70;;;;;;4949362;29;20495;-46
2022/04/13 00:19:14;;;;;;;6.55;4.60;;;14.10;94.10;;;;;;4945029;28;20468;-47
2022/04/13 00:21:40;;;;;;;8.55;5.40;;;14.00;94.50;;;;;;4947711;28;20249;-45
2022/04/13 00:24:06;;;;;;;9.07;4.20;;;14.00;94.60;;;;;;4946958;28;20641;-50
2022/04/13 00:26:33;;;;;;;8.77;4.22;;;13.90;94.90;;;;;;4932378;29;20039;-48
2022/04/13 00:28:58;;;;;;;7.53;3.78;;;13.90;95.20;;;;;;4944431;29;20039;-44
2022/04/13 00:31:24;;;;;;;7.10;4.47;;;13.80;95.40;;;;;;4948545;28;20051;-45
2022/04/13 00:33:49;;;;;;;8.68;4.72;;;13.80;95.80;;;;;;4928115;29;20066;-49
2022/04/13 00:36:15;;;;;;;9.73;4.45;;;13.70;96.50;;;;;;4945645;28;20346;-47
2022/04/13 00:38:41;;;;;;;6.80;4.53;;;13.60;97.00;;;;;;4943764;28;20119;-46
2022/04/13 00:41:06;;;;;;;8.02;4.50;;;13.50;97.40;;;;;;4946258;28;20032;-50
2022/04/13 00:43:32;;;;;;;9.68;4.97;;;13.40;97.70;;;;;;4945066;29;20487;-43
2022/04/13 00:45:58;;;;;;;9.85;4.75;;;13.40;98.40;;;;;;4946170;29;20050;-46
2022/04/13 00:48:28;;;;;;;9.60;5.15;;;13.40;99.40;;;;;;4945364;28;20042;-46
2022/04/13 00:50:54;;;;;;;5.88;4.30;;;13.40;99.90;;;;;;4928114;29;20044;-49
2022/04/13 00:53:23;;;;;;;6.93;3.92;;;13.40;99.90;;;;;;4947144;29;20073;-48
2022/04/13 00:55:53;;;;;;;8.52;4.93;;;13.40;99.90;;;;;;4948865;28;20749;-46
2022/04/13 00:58:22;;;;;;;12.43;4.47;;;13.40;99.90;;;;;;4944210;29;20042;-48
2022/04/13 01:00:49;;;;;;;8.38;5.18;;;13.50;99.90;;;;;;4942285;29;20119;-48
2022/04/13 01:03:24;;;;;;;6.65;4.30;;;13.40;99.90;;;;;;4943440;29;20044;-49
2022/04/13 01:05:51;;;;;;;7.90;4.60;;;13.50;99.90;;;;;;4943115;28;20035;-46
2022/04/13 01:08:18;;;;;;;8.57;5.40;;;13.50;99.90;;;;;;4944172;28;21912;-45
2022/04/13 01:10:46;;;;;;;7.82;4.05;;;13.50;99.90;;;;;;4946841;29;20538;-48
2022/04/13 01:13:13;;;;;;;8.35;4.35;;;13.50;99.90;;;;;;4948177;28;20054;-45
2022/04/13 01:15:39;;;;;;;7.32;4.28;;;13.50;99.90;;;;;;4941775;29;20057;-47
2022/04/13 01:18:05;;;;;;;7.80;4.70;;;13.50;99.90;;;;;;4943421;28;20031;-45
2022/04/13 01:20:34;;;;;;;11.07;5.18;;;13.40;99.90;;;;;;4947556;28;20101;-45
2022/04/13 01:23:00;;;;;;;7.78;4.80;;;13.50;99.90;;;;;;4944926;28;20047;-47
2022/04/13 01:25:26;;;;;;;9.95;5.35;;;13.40;99.90;;;;;;4947720;29;20039;-43
2022/04/13 01:27:51;;;;;;;8.20;4.78;;;13.40;99.90;;;;;;4944351;28;20589;-41
2022/04/13 01:30:17;;;;;;;7.13;4.30;;;13.30;99.90;;;;;;4942402;29;20378;-49
2022/04/13 01:32:42;;;;;;;7.50;5.30;;;13.20;99.90;;;;;;4943171;29;20090;-46
2022/04/13 01:35:08;;;;;;;9.30;4.85;;;13.20;99.90;;;;;;4946434;28;20420;-42
2022/04/13 01:37:34;;;;;;;7.20;4.13;;;13.20;99.90;;;;;;4948485;28;20039;-48
2022/04/13 01:40:00;;;;;;;6.45;4.18;;;13.20;99.90;;;;;;4948668;28;20036;-47
2022/04/13 01:42:26;;;;;;;9.23;4.53;;;13.10;99.90;;;;;;4947090;29;20027;-46
2022/04/13 01:44:52;;;;;;;13.63;4.63;;;13.10;99.90;;;;;;4944800;29;20062;-48
2022/04/13 01:47:17;;;;;;;5.32;3.75;;;13.10;99.90;;;;;;4945979;28;20038;-40
2022/04/13 01:49:43;;;;;;;7.72;4.75;;;13.10;99.90;;;;;;4947353;29;20035;-47
2022/04/13 01:52:11;;;;;;;6.50;3.95;;;13.10;99.90;;;;;;4944899;29;20039;-49
2022/04/13 01:54:36;;;;;;;9.27;5.05;;;13.00;99.90;;;;;;4948356;28;20082;-50
2022/04/13 01:57:02;;;;;;;7.78;4.30;;;13.00;99.90;;;;;;4946845;28;20456;-45
2022/04/13 01:59:28;;;;;;;6.28;4.00;;;13.00;99.90;;;;;;4940310;28;20380;-51
2022/04/13 02:01:54;;;;;;;7.15;5.18;;;13.00;99.90;;;;;;4947874;28;20453;-47
2022/04/13 02:04:28;;;;;;;8.70;4.53;;;13.00;99.90;;;;;;4945570;28;20050;-48
2022/04/13 02:06:54;;;;;;;8.55;3.83;;;13.00;99.90;;;;;;4943001;29;20035;-49
2022/04/13 02:09:20;;;;;;;9.38;4.95;;;12.90;99.90;;;;;;4945929;29;20177;-48
2022/04/13 02:11:47;;;;;;;7.22;4.85;;;12.90;99.90;;;;;;4947865;28;20122;-39
2022/04/13 02:14:12;;;;;;;8.45;4.50;;;12.90;99.90;;;;;;4943696;28;20051;-48
2022/04/13 02:16:38;;;;;;;8.70;4.82;;;12.90;99.90;;;;;;4940953;29;20043;-46
2022/04/13 02:19:07;;;;;;;7.88;3.92;;;12.80;99.90;;;;;;4945969;29;20066;-48
2022/04/13 02:21:33;;;;;;;8.68;5.53;;;12.70;99.90;;;;;;4941939;29;20053;-47
2022/04/13 02:23:59;;;;;;;10.85;6.95;;;12.60;99.90;;;;;;4945302;28;20048;-46
2022/04/13 02:26:25;;;;;;;13.65;5.65;;;12.60;99.90;;;;;;4944445;28;20086;-49
2022/04/13 02:28:51;;;;;;;12.50;6.30;;;12.60;99.90;;;;;;4948863;29;20048;-49
2022/04/13 02:31:17;;;;;;;9.70;6.20;;;12.50;99.90;;;;;;4931077;28;20041;-46
2022/04/13 02:33:43;;;;;;;12.23;6.97;;;12.50;99.90;;;;;;4931855;29;20047;-41
2022/04/13 02:36:09;;;;;;;9.57;6.00;;;12.50;99.90;;;;;;4928562;29;20511;-46
2022/04/13 02:38:34;;;;;;;13.75;6.75;;;12.50;99.90;;;;;;4939005;28;20036;-48
2022/04/13 02:41:00;;;;;;;14.02;6.97;;;12.50;99.90;;;;;;4947879;29;20507;-49
2022/04/13 02:43:29;;;;;;;12.23;7.60;;;12.50;99.90;;;;;;4944295;29;20067;-45
2022/04/13 02:45:56;;;;;;;14.07;6.97;;;12.50;99.90;;;;;;4941987;29;20039;-49
2022/04/13 02:48:22;;;;;;;13.80;7.60;;;12.50;99.90;;;;;;4930940;28;20126;-45
2022/04/13 02:50:48;;;;;;;12.88;7.93;;;12.50;99.90;;;;;;4946337;28;20601;-48
2022/04/13 02:53:15;;;;;;;10.98;7.75;;;12.50;99.90;;;;;;4942643;28;20049;-48
2022/04/13 02:55:41;;;;;;;12.73;8.52;;;12.40;99.90;;;;;;4937677;28;20065;-47
2022/04/13 02:58:07;;;;;;;14.00;8.27;;;12.40;99.90;;;;;;4930011;29;20142;-49
2022/04/13 03:00:33;;;;;;;14.20;8.18;;;12.30;99.90;;;;;;4943732;29;20058;-49
2022/04/13 03:02:58;;;;;;;16.08;10.13;;;12.30;99.90;;;;;;4946765;29;20540;-44
2022/04/13 03:05:24;;;;;;;13.73;8.65;;;12.30;99.90;;;;;;4946053;29;20636;-48
2022/04/13 03:07:49;;;;;;;12.35;7.15;;;12.30;99.90;;;;;;4945441;28;20031;-45
2022/04/13 03:10:15;;;;;;;14.02;8.85;;;12.20;99.90;;;;;;4947647;28;20047;-49
2022/04/13 03:12:42;;;;;;;17.10;9.57;;;12.20;99.90;;;;;;4934896;29;20039;-45
2022/04/13 03:15:09;;;;;;;14.35;8.50;;;12.20;99.90;;;;;;4949555;28;20032;-44
2022/04/13 03:17:35;;;;;;;15.43;8.90;;;12.20;99.90;;;;;;4948277;29;20055;-52
2022/04/13 03:20:01;;;;;;;15.57;8.95;;;12.20;99.90;;;;;;4945203;28;20082;-46
2022/04/13 03:22:27;;;;;;;13.05;7.78;;;12.10;99.90;;;;;;4945292;28;20055;-48
2022/04/13 03:24:53;;;;;;;13.52;8.93;;;12.10;99.90;;;;;;4932240;29;20508;-41
2022/04/13 03:27:19;;;;;;;17.48;10.45;;;12.00;99.90;;;;;;4949224;29;20038;-45
2022/04/13 03:29:45;;;;;;;14.93;9.10;;;12.00;99.90;;;;;;4948729;29;20392;-47
2022/04/13 03:32:10;;;;;;;14.93;9.73;;;12.00;99.90;;;;;;4950034;29;20381;-49
2022/04/13 03:34:36;;;;;;;15.65;8.93;;;12.00;99.90;;;;;;4949138;28;20497;-44
2022/04/13 03:37:02;;;;;;;14.75;8.93;;;12.00;99.90;;;;;;4952331;29;20043;-50
2022/04/13 03:39:28;;;;;;;13.77;8.93;;;12.00;99.90;;;;;;4933831;29;20504;-46
2022/04/13 03:41:54;;;;;;;15.43;9.52;;;12.00;99.90;;;;;;4934144;29;20039;-46
2022/04/13 03:44:20;;;;;;;11.73;7.85;;;12.00;99.90;;;;;;4949266;29;20063;-41
2022/04/13 03:46:46;;;;;;;13.10;8.50;;;12.00;99.90;;;;;;4936969;29;20070;-49
2022/04/13 03:49:12;;;;;;;17.73;10.13;;;12.00;99.90;;;;;;4935841;29;20050;-49
2022/04/13 03:51:38;;;;;;;16.17;9.75;;;12.00;99.90;;;;;;4946527;29;20374;-48
2022/04/13 03:54:04;;;;;;;13.98;8.70;;;12.00;99.90;;;;;;4945447;29;20416;-44
2022/04/13 03:56:30;;;;;;;14.70;10.07;;;11.90;99.90;;;;;;4930114;29;20508;-49
2022/04/13 03:58:59;;;;;;;16.60;9.77;;;11.90;99.90;;;;;;4931852;29;20051;-47
2022/04/13 04:01:25;;;;;;;14.70;9.38;;;11.90;99.90;;;;;;4951063;28;20046;-47
2022/04/13 04:03:51;;;;;;;13.75;9.32;;;11.80;99.90;;;;;;4948773;29;20035;-45
2022/04/13 04:06:17;;;;;;;14.77;9.75;;;11.80;99.90;;;;;;4947722;29;20040;-51
2022/04/13 04:08:43;;;;;;;18.48;9.75;;;11.70;99.90;;;;;;4947798;29;20036;-49
2022/04/13 04:11:08;;;;;;;17.98;10.70;;;11.70;99.90;;;;;;4949253;28;20312;-50
2022/04/13 04:13:34;;;;;;;18.90;10.68;;;11.70;99.90;;;;;;4944849;28;20101;-45
2022/04/13 04:16:00;;;;;;;15.38;9.93;;;11.60;99.90;;;;;;4925653;29;20484;-46
2022/04/13 04:18:26;;;;;;;14.82;9.15;;;11.60;99.90;;;;;;4941640;29;20043;-48
2022/04/13 04:20:52;;;;;;;16.40;9.43;;;11.60;99.90;;;;;;4947669;29;20039;-47
2022/04/13 04:23:19;;;;;;;16.05;10.35;;;11.60;99.90;;;;;;4949317;29;20039;-45
2022/04/13 04:25:44;;;;;;;16.45;9.98;;;11.60;99.90;;;;;;4943804;28;20047;-46
2022/04/13 04:28:10;;;;;;;13.63;9.55;;;11.60;99.90;;;;;;4942559;29;20370;-44
2022/04/13 04:30:40;;;;;;;15.27;10.10;;;11.60;99.90;;;;;;4946560;29;20047;-48
2022/04/13 04:33:06;;;;;;;16.60;9.38;;;11.60;99.90;;;;;;4949198;28;20043;-47
2022/04/13 04:35:33;;;;;;;16.00;10.13;;;11.60;99.90;;;;;;4949739;28;20105;-47
2022/04/13 04:38:02;;;;;;;21.25;11.55;;;11.60;99.90;;;;;;4945922;28;20115;-46
2022/04/13 04:40:28;;;;;;;19.33;10.63;;;11.60;99.90;;;;;;4947872;29;20496;-46
2022/04/13 04:42:55;;;;;;;17.60;9.82;;;11.60;99.90;;;;;;4947173;29;20027;-42
2022/04/13 04:45:21;;;;;;;14.43;8.75;;;11.50;99.90;;;;;;4947000;28;20044;-50
2022/04/13 04:47:48;;;;;;;13.43;8.95;;;11.50;99.90;;;;;;4923860;29;20050;-45
2022/04/13 04:50:14;;;;;;;18.85;10.27;;;11.50;99.90;;;;;;4933047;29;20043;-46
2022/04/13 04:52:43;;;;;;;13.40;8.95;;;11.50;99.90;;;;;;4944836;28;20051;-46
2022/04/13 04:55:10;;;;;;;9.85;7.38;;;11.50;99.90;;;;;;4940499;29;20082;-42
2022/04/13 04:57:36;;;;;;;15.15;10.18;;;11.50;99.90;;;;;;4948509;28;20498;-42
2022/04/13 05:00:05;;;;;;;12.82;7.90;;;11.50;99.90;;;;;;4943010;29;20130;-47
2022/04/13 05:02:31;;;;;;;13.55;7.95;;;11.50;99.90;;;;;;4947003;29;20107;-48
2022/04/13 05:04:57;;;;;;;14.60;7.85;;;11.50;99.90;;;;;;4949567;29;20425;-49
2022/04/13 05:07:22;;;;;;;13.55;8.38;;;11.40;99.90;;;;;;4946761;29;20481;-47
2022/04/13 05:09:48;;;;;;;13.63;8.75;;;11.40;99.90;;;;;;4942894;29;20411;-45
2022/04/13 05:12:13;;;;;;;10.38;6.65;;;11.40;99.90;;;;;;4948890;29;20046;-46
2022/04/13 05:14:39;;;;;;;13.40;8.07;;;11.40;99.90;;;;;;4944519;28;20039;-41
2022/04/13 05:17:05;;;;;;;12.88;9.02;;;11.40;99.90;;;;;;4945313;28;20799;-45
2022/04/13 05:19:30;;;;;;;11.35;7.57;;;11.40;99.90;;;;;;4929103;28;20512;-49
2022/04/13 05:21:56;;;;;;;19.55;8.88;;;11.30;99.90;;;;;;4948026;29;20031;-46
2022/04/13 05:24:22;;;;;;;12.93;8.07;;;11.30;99.90;;;;;;4942650;29;20553;-49
2022/04/13 05:26:47;;;;;;;14.55;7.07;;;11.30;99.90;;;;;;4944619;29;20496;-45
2022/04/13 05:29:13;;;;;;;11.77;8.02;;;11.30;99.90;;;;;;4948398;28;20373;-49
2022/04/13 05:31:38;;;;;;;13.35;7.85;;;11.20;99.90;;;;;;4945115;28;20054;-45
2022/04/13 05:34:04;;;;;;;13.07;7.70;;;11.30;99.90;;;;;;4932556;29;20073;-46
2022/04/13 05:36:30;;;;;;;12.55;7.90;;;11.30;99.90;;;;;;4940734;29;20035;-44
2022/04/13 05:38:55;;;;;;;11.13;7.00;;;11.30;99.90;;;;;;4944600;29;20031;-47
2022/04/13 05:41:21;;;;;;;14.75;7.13;;;11.30;99.90;;;;;;4940781;29;20095;-47
2022/04/13 05:43:47;;;;;;;11.10;6.90;;;11.30;99.90;;;;;;4948447;29;20484;-43
2022/04/13 05:46:12;;;;;;;18.23;8.02;;;11.30;99.90;;;;;;4944404;28;20043;-42
2022/04/13 05:48:38;;;;;;;12.50;7.80;;;11.30;99.90;;;;;;4946774;28;20444;-42
2022/04/13 05:51:03;;;;;;;11.48;8.07;;;11.30;99.90;;;;;;4947654;29;20043;-44
2022/04/13 05:53:29;;;;;;;13.68;8.05;;;11.40;99.90;;;;;;4947628;29;20061;-49
2022/04/13 05:55:57;;;;;;;15.65;7.65;;;11.50;99.90;;;;;;4946201;29;20077;-45
2022/04/13 05:58:24;;;;;;;11.88;7.22;;;11.50;99.90;;;;;;4928555;29;20469;-48
2022/04/13 06:00:50;;;;;;;17.92;8.43;;;11.60;99.90;;;;;;4945434;29;20138;-44
2022/04/13 06:03:17;;;;;;;13.48;7.80;;;11.70;99.90;;;;;;4926735;29;20129;-49
2022/04/13 06:05:44;;;;;;;14.77;8.27;;;11.70;99.90;;;;;;4944143;29;20090;-49
2022/04/13 06:08:09;;;;;;;11.43;6.78;;;11.80;99.90;;;;;;4942448;29;20424;-45
2022/04/13 06:10:35;;;;;;;10.10;6.25;;;11.80;99.90;;;;;;4942940;28;20044;-45
2022/04/13 06:13:01;;;;;;;13.02;6.47;;;11.90;99.90;;;;;;4943881;29;20175;-46
2022/04/13 06:15:28;;;;;;;13.20;8.18;;;11.90;99.90;;;;;;4948008;29;20516;-47
2022/04/13 06:17:54;;;;;;;11.88;7.13;;;12.00;99.90;;;;;;4922000;29;20043;-49
2022/04/13 06:20:20;;;;;;;12.88;7.32;;;12.10;99.90;;;;;;4946353;29;20044;-41
2022/04/13 06:22:46;;;;;;;12.80;6.13;;;12.10;99.90;;;;;;4931014;29;20062;-47
2022/04/13 06:25:12;;;;;;;11.40;6.13;;;12.10;99.90;;;;;;4916160;29;20059;-46
2022/04/13 06:27:42;;;;;;;11.00;6.82;;;12.20;99.90;;;;;;4948692;29;20058;-47
2022/04/13 06:30:08;;;;;;;11.18;7.10;;;12.20;99.90;;;;;;4947219;29;20051;-48
2022/04/13 06:32:39;;;;;;;10.43;6.30;;;12.30;99.90;;;;;;4946339;29;20480;-46
2022/04/13 06:35:07;;;;;;;12.70;6.80;;;12.30;99.90;;;;;;4940336;29;20047;-46
2022/04/13 06:37:45;;;;;;;12.73;7.38;;;12.30;99.90;;;;;;4946198;29;20070;-45
2022/04/13 06:40:11;;;;;;;13.18;7.60;;;12.40;99.90;;;;;;4940975;29;20051;-43
2022/04/13 06:42:38;;;;;;;12.60;7.55;;;12.40;99.90;;;;;;4948608;29;20034;-47
2022/04/13 06:45:10;;;;;;;11.63;7.53;;;12.40;99.90;;;;;;4945448;29;20043;-45
2022/04/13 06:47:36;;;;;;;10.50;7.38;;;12.50;99.90;;;;;;4926473;29;20051;-46
2022/04/13 06:50:02;;;;;;;13.32;7.60;;;12.50;99.90;;;;;;4946532;29;20062;-49
2022/04/13 06:52:32;;;;;;;12.98;7.45;;;12.70;99.90;;;;;;4943748;29;20492;-47
2022/04/13 06:54:58;;;;;;;12.00;7.35;;;12.70;99.90;;;;;;4944870;29;20310;-47
2022/04/13 06:57:24;;;;;;;10.43;6.57;;;12.80;99.90;;;;;;4930183;29;20493;-46
2022/04/13 06:59:49;;;;;;;12.57;7.07;;;12.90;99.90;;;;;;4947422;29;20071;-45
2022/04/13 07:02:15;;;;;;;11.35;6.57;;;13.00;99.90;;;;;;4943251;29;20125;-47
2022/04/13 07:04:40;;;;;;;13.73;7.22;;;13.10;99.90;;;;;;4944118;29;21803;-41
2022/04/13 07:07:06;;;;;;;10.93;6.55;;;13.10;99.90;;;;;;4943000;29;20039;-47
2022/04/13 07:09:32;;;;;;;12.73;7.25;;;13.20;99.90;;;;;;4943156;29;20054;-42
2022/04/13 07:11:58;;;;;;;13.63;7.25;;;13.30;99.90;;;;;;4944069;29;20035;-44
2022/04/13 07:14:24;;;;;;;12.20;6.82;;;13.30;99.90;;;;;;4947677;29;20381;-48
2022/04/13 07:16:49;;;;;;;11.80;6.20;;;13.30;99.90;;;;;;4942423;29;20047;-47
2022/04/13 07:19:15;;;;;;;11.20;6.38;;;13.40;99.90;;;;;;4945284;29;20039;-48
2022/04/13 07:21:40;;;;;;;11.43;7.13;;;13.50;99.90;;;;;;4943849;28;20035;-45
2022/04/13 07:24:06;;;;;;;10.35;6.50;;;13.50;99.90;;;;;;4950476;29;20044;-49
2022/04/13 07:26:32;;;;;;;12.35;6.40;;;13.60;99.90;;;;;;4946849;29;20051;-45
2022/04/13 07:28:58;;;;;;;12.73;6.25;;;13.60;99.90;;;;;;4945062;29;20400;-46
2022/04/13 07:31:24;;;;;;;11.20;5.97;;;13.70;99.90;;;;;;4949774;28;20120;-48
2022/04/13 07:33:50;;;;;;;12.80;6.60;;;13.80;99.90;;;;;;4935321;29;20433;-49
2022/04/13 07:36:15;;;;;;;10.55;6.90;;;13.80;99.90;;;;;;4947036;29;20074;-48
2022/04/13 07:38:41;;;;;;;11.02;6.40;;;13.90;99.90;;;;;;4946974;28;20043;-47
2022/04/13 07:41:07;;;;;;;11.45;6.68;;;13.90;99.90;;;;;;4945739;29;20042;-41
2022/04/13 07:43:32;;;;;;;11.63;7.40;;;13.90;99.90;;;;;;4943395;29;20043;-48
2022/04/13 07:45:58;;;;;;;12.05;6.55;;;14.00;99.90;;;;;;4940822;29;20188;-45
2022/04/13 07:48:24;;;;;;;11.45;6.72;;;14.00;99.90;;;;;;4941800;28;20038;-45
2022/04/13 07:50:50;;;;;;;13.38;6.63;;;14.00;99.90;;;;;;4925112;29;20050;-46
2022/04/13 07:53:15;;;;;;;11.63;6.45;;;14.00;99.90;;;;;;4944522;28;20889;-47
2022/04/13 07:55:41;;;;;;;13.77;7.05;;;14.00;99.90;;;;;;4946969;29;20062;-46
2022/04/13 07:58:07;;;;;;;12.38;6.80;;;14.00;99.90;;;;;;4946076;29;20035;-46
2022/04/13 08:00:33;;;;;;;13.05;7.65;;;14.00;99.90;;;;;;4947752;29;20490;-47
2022/04/13 08:02:59;;;;;;;11.15;6.97;;;14.10;99.90;;;;;;4948385;28;20035;-50
2022/04/13 08:05:25;;;;;;;13.75;7.00;;;14.30;99.90;;;;;;4944175;29;20046;-44
2022/04/13 08:07:51;;;;;;;11.50;6.68;;;14.40;99.90;;;;;;4929203;29;20046;-43
2022/04/13 08:10:17;;;;;;;10.65;6.75;;;14.40;99.90;;;;;;4944255;29;20039;-42
2022/04/13 08:12:46;;;;;;;12.73;6.53;;;14.50;99.90;;;;;;4946781;29;20409;-45
2022/04/13 08:15:13;;;;;;;10.90;6.05;;;14.60;99.90;;;;;;4945576;29;20043;-49
2022/04/13 08:17:40;;;;;;;12.38;5.35;;;14.60;99.90;;;;;;4946761;29;20066;-45
2022/04/13 08:20:07;;;;;;;10.65;5.43;;;14.70;99.90;;;;;;4947405;29;20035;-45
2022/04/13 08:22:33;;;;;;;7.82;5.18;;;14.80;99.90;;;;;;4933632;29;20353;-46
2022/04/13 08:24:59;;;;;;;10.43;5.65;;;15.00;99.90;;;;;;4947625;29;20039;-46
2022/04/13 08:27:24;;;;;;;11.82;5.70;;;15.00;99.90;;;;;;4928735;29;20149;-48
2022/04/13 08:29:50;;;;;;;11.15;6.10;;;15.00;99.90;;;;;;4947424;29;20043;-49
2022/04/13 08:32:17;;;;;;;10.63;5.63;;;15.00;99.90;;;;;;4948105;28;20075;-46
2022/04/13 08:34:43;;;;;;;10.77;5.57;;;15.00;99.90;;;;;;4950428;28;20109;-48
2022/04/13 08:37:10;;;;;;;9.38;6.15;;;15.00;99.90;;;;;;4946493;29;20764;-48
2022/04/13 08:39:36;;;;;;;10.20;6.10;;;14.90;99.90;;;;;;4932527;29;20039;-47
2022/04/13 08:42:13;;;;;;;9.90;5.68;;;14.90;99.90;;;;;;4945343;29;20508;-48
2022/04/13 08:44:49;;;;;;;11.45;6.40;;;15.00;99.90;;;;;;4948596;29;20559;-45
2022/04/13 08:47:20;;;;;;;9.77;6.28;;;15.10;99.90;;;;;;4930503;29;20054;-46
2022/04/13 08:49:51;;;;;;;13.52;6.82;;;15.10;99.90;;;;;;4952272;29;20047;-45
2022/04/13 08:52:24;;;;;;;11.63;6.45;;;15.20;99.90;;;;;;4945433;29;20035;-41
2022/04/13 08:55:14;;;;;;;13.57;6.95;;;15.30;99.90;;;;;;4950599;29;20043;-45
2022/04/13 08:57:49;;;;;;;11.25;6.18;;;15.30;99.90;;;;;;4940580;29;20055;-44
2022/04/13 09:00:16;;;;;;;9.27;5.82;;;15.30;99.90;;;;;;4923046;29;20689;-45
2022/04/13 09:03:01;;;;;;;9.88;6.05;;;15.40;99.90;;;;;;4942965;28;20043;-45
2022/04/13 09:05:33;;;;;;;12.32;7.03;;;15.50;99.90;;;;;;4945493;28;20516;-45
2022/04/13 09:08:25;;;;;;;10.23;6.07;;;15.50;99.90;;;;;;4949710;29;20090;-45
2022/04/13 09:10:53;;;;;;;11.50;6.60;;;15.60;99.90;;;;;;4931259;29;20054;-43
2022/04/13 09:13:20;;;;;;;10.35;6.40;;;15.70;99.90;;;;;;4949014;29;20122;-45
2022/04/13 09:15:47;;;;;;;10.88;6.13;;;15.70;99.90;;;;;;4944486;29;20051;-45
2022/04/13 09:18:12;;;;;;;9.30;5.70;;;15.70;99.90;;;;;;4942297;29;20066;-43
2022/04/13 09:20:39;;;;;;;11.30;6.43;;;15.80;99.90;;;;;;4947957;29;20441;-47
2022/04/13 09:23:06;;;;;;;9.70;6.20;;;15.80;99.90;;;;;;4945543;29;20080;-45
2022/04/13 09:25:33;;;;;;;11.48;6.28;;;15.90;99.90;;;;;;4948112;29;20070;-42
2022/04/13 09:28:00;;;;;;;8.63;5.45;;;16.00;99.90;;;;;;4947084;29;20121;-44
2022/04/13 09:30:26;;;;;;;10.93;6.50;;;16.10;99.90;;;;;;4932716;29;20504;-48
2022/04/13 09:32:52;;;;;;;10.07;6.32;;;16.20;99.90;;;;;;4942842;28;20198;-40
2022/04/13 09:35:19;;;;;;;9.80;5.18;;;16.30;99.90;;;;;;4942181;29;20489;-44
2022/04/13 09:37:45;;;;;;;7.47;4.50;;;16.40;99.90;;;;;;4942590;29;20465;-45
2022/04/13 09:40:45;;;;;;;6.80;4.05;;;16.40;99.90;;;;;;4942969;29;20055;-44
2022/04/13 09:43:15;;;;;;;13.05;4.80;;;16.60;99.90;;;;;;4944753;28;20513;-44
2022/04/13 09:45:43;;;;;;;9.52;4.90;;;16.70;99.90;;;;;;4944612;28;20044;-46
2022/04/13 09:48:18;;;;;;;11.70;4.80;;;16.70;99.90;;;;;;4944164;29;20043;-45
2022/04/13 09:50:44;;;;;;;10.88;5.00;;;16.60;99.90;;;;;;4930590;29;20066;-45
2022/04/13 09:53:11;;;;;;;9.73;5.03;;;16.50;99.90;;;;;;4928569;29;20051;-46
2022/04/13 09:55:40;;;;;;;12.10;5.55;;;16.60;99.90;;;;;;4946003;29;20039;-40
2022/04/13 09:58:07;;;;;;;10.80;5.45;;;16.70;99.90;;;;;;4944812;29;20035;-44
2022/04/13 10:00:34;;;;;;;8.48;5.68;;;16.80;99.90;;;;;;4932059;29;20131;-43
2022/04/13 10:03:12;;;;;;;8.07;5.22;;;16.90;99.50;;;;;;4938894;28;20050;-43
2022/04/13 10:05:40;;;;;;;9.05;4.05;;;17.00;99.90;;;;;;4945828;29;20131;-45
2022/04/13 10:08:08;;;;;;;6.45;3.83;;;17.10;98.80;;;;;;4943123;29;20031;-45
2022/04/13 10:10:35;;;;;;;8.40;4.20;;;17.20;97.90;;;;;;4946378;29;20047;-48
2022/04/13 10:13:01;;;;;;;8.18;4.00;;;17.40;97.60;;;;;;4947282;29;20039;-45
2022/04/13 10:15:27;;;;;;;9.02;4.45;;;17.40;95.30;;;;;;4943663;29;20043;-43
2022/04/13 10:17:58;;;;;;;8.38;4.03;;;17.70;95.70;;;;;;4944609;28;20098;-45
2022/04/13 10:20:42;;;;;;;9.00;4.57;;;17.80;95.00;;;;;;4944946;29;20059;-45
2022/04/13 10:23:08;;;;;;;7.05;4.00;;;18.00;94.40;;;;;;4947257;28;20085;-43
2022/04/13 10:25:34;;;;;;;8.98;4.75;;;18.10;93.10;;;;;;4947627;29;20050;-41
2022/04/13 10:28:01;;;;;;;6.30;3.58;;;18.20;92.90;;;;;;4947764;29;20031;-44
2022/04/13 10:30:32;;;;;;;8.25;3.95;;;18.40;92.30;;;;;;4943901;28;20105;-46
2022/04/13 10:33:00;;;;;;;6.93;3.72;;;18.40;88.40;;;;;;4947927;29;20090;-49
2022/04/13 10:35:26;;;;;;;7.20;3.28;;;18.40;88.10;;;;;;4944862;29;20047;-44
2022/04/13 10:37:52;;;;;;;4.80;2.40;;;18.40;88.50;;;;;;4945266;29;20607;-45
2022/04/13 10:40:25;;;;;;;7.97;2.60;;;18.20;85.70;;;;;;4943155;29;20134;-45
2022/04/13 10:42:53;;;;;;;4.45;2.70;;;18.00;84.50;;;;;;4945631;29;20119;-48
2022/04/13 10:45:19;;;;;;;4.93;2.53;;;17.90;83.40;;;;;;4910314;29;20492;-48
2022/04/13 10:47:58;;;;;;;10.15;3.35;;;17.80;87.80;;;;;;4945604;29;20123;-45
2022/04/13 10:50:41;;;;;;;9.23;3.80;;;17.90;90.10;;;;;;4943622;29;20051;-58
2022/04/13 10:53:25;;;;;;;;;;;17.90;90.20;;;;;;4943044;28;20050;-46
2022/04/13 10:55:58;;;;;;;8.93;4.10;;;17.90;90.60;;;;;;4945957;29;19922;-42
2022/04/13 10:58:29;;;;;;;9.32;5.05;;;17.90;91.60;;;;;;4926300;29;20039;-45
2022/04/13 11:01:03;;;;;;;10.80;4.60;;;17.80;91.50;;;;;;4941585;29;20501;-46
2022/04/13 11:03:34;;;;;;;8.75;4.35;;;17.80;92.40;;;;;;4947509;29;20040;-50
2022/04/13 11:06:02;;;;;;;7.82;4.20;;;17.70;92.70;;;;;;4944663;29;20039;-48
2022/04/13 11:08:51;;;;;;;8.77;5.05;;;17.60;94.20;;;;;;4943829;29;20038;-44
2022/04/13 11:11:28;;;;;;;9.88;5.25;;;17.60;94.10;;;;;;4944523;29;20465;-47
2022/04/13 11:13:53;;;;;;;8.77;5.30;;;17.60;94.80;;;;;;4935371;29;20050;-48
2022/04/13 11:16:21;;;;;;;8.95;5.13;;;17.50;95.20;;;;;;4927711;29;20035;-42
2022/04/13 11:19:04;;;;;;;10.85;4.88;;;17.40;95.90;;;;;;4942112;29;20035;-42
2022/04/13 11:21:31;;;;;;;10.52;4.70;;;17.40;97.40;;;;;;4946298;29;20150;-46
2022/04/13 11:23:56;;;;;;;9.55;5.03;;;17.30;97.40;;;;;;4943170;29;20138;-49
2022/04/13 11:26:34;;;;;;;13.57;6.00;;;17.30;97.20;;;;;;4942174;29;20122;-47
2022/04/13 11:29:09;;;;;;;11.27;5.72;;;17.30;97.20;;;;;;4948309;28;20031;-41
2022/04/13 11:32:00;;;;;;;11.02;5.07;;;17.30;97.80;;;;;;4946369;29;20126;-45
2022/04/13 11:34:49;;;;;;;10.10;5.10;;;17.30;97.10;;;;;;4947541;29;20527;-43
2022/04/13 11:37:45;;;;;;;8.00;4.65;;;17.30;97.30;;;;;;4945744;29;20048;-43
2022/04/13 11:40:18;;;;;;;11.13;5.15;;;17.30;97.40;;;;;;4946082;29;20054;-49
2022/04/13 11:42:46;;;;;;;11.80;5.45;;;17.30;97.90;;;;;;4946594;29;20531;-47
2022/04/13 11:45:17;;;;;;;11.35;5.40;;;17.30;98.20;;;;;;4944223;29;20050;-43
2022/04/13 11:48:00;;;;;;;10.73;5.75;;;17.30;98.20;;;;;;4944625;29;20039;-43
2022/04/13 11:50:33;;;;;;;14.18;5.00;;;17.30;97.40;;;;;;4946047;29;21642;-43
2022/04/13 11:53:14;;;;;;;8.88;4.82;;;17.30;97.80;;;;;;4947386;29;20094;-40
2022/04/13 11:55:39;;;;;;;11.45;4.32;;;17.40;96.70;;;;;;4950125;29;20047;-47
2022/04/13 11:58:07;;;;;;;10.65;3.78;;;17.50;96.90;;;;;;4946705;29;20047;-49
2022/04/13 12:00:45;;;;;;;9.30;3.78;;;17.60;96.60;;;;;;4946712;29;20666;-46
2022/04/13 12:03:16;;;;;;;10.10;4.07;;;17.60;95.90;;;;;;4940456;29;20042;-48
2022/04/13 12:05:44;;;;;;;9.48;3.47;;;17.40;95.00;;;;;;4943464;29;20066;-47
2022/04/13 12:08:35;;;;;;;8.45;2.67;;;17.20;95.50;;;;;;4950073;29;20389;-45
2022/04/13 12:11:04;;;;;;;7.80;3.75;;;17.10;97.10;;;;;;4944678;29;20467;-48
2022/04/13 12:13:34;;;;;;;9.35;3.28;;;16.90;97.50;;;;;;4950607;29;20557;-46
2022/04/13 12:16:01;;;;;;;9.57;3.65;;;16.80;98.20;;;;;;4945931;29;20130;-44
2022/04/13 12:18:27;;;;;;;12.52;3.90;;;16.70;98.90;;;;;;4949131;29;20031;-45
2022/04/13 12:21:06;;;;;;;10.20;3.45;;;16.70;99.50;;;;;;4939051;29;20090;-48
2022/04/13 12:23:35;;;;;;;9.73;2.97;;;16.70;99.60;;;;;;4951160;29;20619;-45
2022/04/13 12:26:01;;;;;;;8.00;2.55;;;16.70;99.90;;;;;;4951978;29;20523;-50
2022/04/13 12:28:26;;;;;;;9.45;2.70;;;16.80;99.90;;;;;;4950071;29;20139;-43
2022/04/13 12:31:03;;;;;;;7.43;2.47;;;16.90;99.80;;;;;;4948306;29;20174;-46
2022/04/13 12:33:31;;;;;;;7.45;3.08;;;17.00;99.40;;;;;;4950660;29;20046;-49
2022/04/13 12:36:14;;;;;;;12.05;3.75;;;17.00;98.80;;;;;;4950088;29;20070;-43
2022/04/13 12:38:47;;;;;;;7.07;2.50;;;17.00;98.30;;;;;;4939569;29;20086;-48
2022/04/13 12:41:20;;;;;;;8.98;3.17;;;17.00;97.70;;;;;;4943958;28;20057;-44
2022/04/13 12:44:03;;;;;;;9.32;2.58;;;17.00;98.20;;;;;;4945401;29;20039;-42
2022/04/13 12:46:31;;;;;;;6.07;2.30;;;17.00;97.50;;;;;;4949556;29;20489;-46